X  Close Metar Aviation Weather Data     EGXP RAF Scampton
Temperature
5°C Temperature
4°C Dewpoint
93% Humidity



Wind
9 MPH
14 KM/H
4 M/S
8 KTS



210°
SSW
Current Conditions

Mostly Cloudy Mostly Cloudy
Pressure 1011.92 (hPa) - 29.88 (inHg)
Visibility 6.2 (mile) - 10 (km)
Airport
Airport-code EGXP

Location: RAF Scampton
Distance: 11 (mi)

Metar:
EGXP 181850Z AUTO 21008KT 9999 // BKN009/// 05/04 Q1012

Time: 18-01-2021 18:50 GMT